Flight Track Log - Related Links

Times and Time Zones

All times are in EDT time to prevent confusion due to time zone crossing. See the UAL6148 flight status page for this flight to view local times or setup timezone preferences in your user account.

Time Position Orientation Groundspeed Altitude Reporting Facility
EDT Latitude Longitude Course Direction KTS km/h feet Rate Location/Type
Mon 06:52:11 PM 41.9667 -87.9833 261° West 198 367 3.300  Level Chicago TRACON
Mon 06:53:11 PM 41.9667 -88.0667 270° West 248 459 4.700 1.694 Climbing Chicago TRACON
Mon 06:54:15 PM 41.9722 -88.1500 275° West 239 443 6.800 2.571 Climbing Chicago Center
Mon 06:55:17 PM 41.9733 -88.2661 271° West 258 478 10.100 2.081 Climbing Chicago Center
Mon 06:56:19 PM 41.9678 -88.3711 266° West 284 526 11.100 1.306 Climbing Chicago Center
Mon 06:57:00 PM 41.9072 -88.5474 261° West  Level FlightAware Approximate
Mon 06:57:21 PM 41.9542 -88.4911 261° West 322 597 12.800  Level Chicago Center
Mon 06:58:23 PM 41.9400 -88.6081 261° West 322 597 15.200 1.890 Climbing Chicago Center
Mon 06:59:28 PM 41.9197 -88.7475 259° West 320 592 16.800 1.512 Climbing Chicago Center
Mon 07:00:30 PM 41.9039 -88.8731 260° West 340 629 18.400 1.597 Climbing Chicago Center
Mon 07:01:32 PM 41.8914 -88.9972 262° West 340 629 20.100 1.694 Climbing Chicago Center
Mon 07:02:34 PM 41.8775 -89.1236 262° West 344 637 21.900 2.177 Climbing Chicago Center
Mon 07:03:36 PM 41.8619 -89.2706 262° West 337 624 24.600 2.129 Climbing Chicago Center
Mon 07:04:38 PM 41.8514 -89.3878 263° West 324 600 26.300 1.597 Climbing Chicago Center
Mon 07:05:40 PM 41.8408 -89.5044 263° West 319 591 27.900 1.548 Climbing Chicago Center
Mon 07:06:42 PM 41.8283 -89.6192 262° West 314 581 29.500 1.500 Climbing Chicago Center
Mon 07:07:44 PM 41.8156 -89.7356 262° West 318 589 31.000 1.152 Climbing Chicago Center
Mon 07:08:47 PM 41.8014 -89.8758 262° West 320 592 31.900 480 Climbing Chicago Center
Mon 07:09:49 PM 41.7878 -90.0103 262° West 353 653 32.000 48 Climbing Chicago Center
Mon 07:10:51 PM 41.7725 -90.1508 262° West 378 700 32.000  Level Chicago Center
Mon 07:11:53 PM 41.7564 -90.3036 262° West 411 761 32.000  Level Chicago Center
Mon 07:12:55 PM 41.7386 -90.4544 261° West 411 761 32.000  Level Chicago Center
Mon 07:13:57 PM 41.7228 -90.6028 262° West 405 750 32.000  Level Chicago Center
Mon 07:14:59 PM 41.7044 -90.7575 261° West 407 753 32.000  Level Chicago Center
Mon 07:16:01 PM 41.6875 -90.9061 261° West 405 750 32.000  Level Chicago Center
Mon 07:17:03 PM 41.6672 -91.0822 261° West 404 748 32.000  Level Chicago Center
Mon 07:18:05 PM 41.6494 -91.2314 261° West 406 752 32.000  Level Chicago Center
Mon 07:19:07 PM 41.6314 -91.3786 261° West 404 748 32.000  Level Chicago Center
Mon 07:20:09 PM 41.6131 -91.5269 261° West 406 752 32.000  Level Chicago Center
Mon 07:21:11 PM 41.5953 -91.6731 261° West 402 745 32.000  Level Chicago Center
Mon 07:22:12 PM 41.5731 -91.8511 261° West 406 752 32.000  Level Chicago Center
Mon 07:23:14 PM 41.5556 -91.9978 261° West 403 747 32.000  Level Chicago Center
Mon 07:24:16 PM 41.5356 -92.1425 260° West 401 742 32.000  Level Chicago Center
Mon 07:25:18 PM 41.5172 -92.2925 261° West 406 752 32.000  Level Chicago Center
Mon 07:26:20 PM 41.4969 -92.4389 260° West 407 753 32.000  Level Chicago Center
Mon 07:27:22 PM 41.4764 -92.6106 261° West 412 763 32.000  Level Chicago Center
Mon 07:28:24 PM 41.4567 -92.7586 260° West 411 761 32.000  Level Chicago Center
Mon 07:29:26 PM 41.4369 -92.9044 260° West 407 753 32.000  Level Chicago Center
Mon 07:30:28 PM 41.4178 -93.0514 260° West 406 752 32.000  Level Chicago Center
Mon 07:31:30 PM 41.3933 -93.2272 260° West 407 753 32.000  Level Chicago Center
Mon 07:32:32 PM 41.3731 -93.3733 260° West 405 750 32.000  Level Chicago Center
Mon 07:33:34 PM 41.3531 -93.5208 260° West 410 760 32.000  Level Chicago Center
Mon 07:34:36 PM 41.3317 -93.6661 259° West 406 752 32.000  Level Chicago Center
Mon 07:35:38 PM 41.3072 -93.8444 260° West 413 764 32.000  Level Chicago Center
Mon 07:36:40 PM 41.2853 -93.9944 259° West 417 772 32.000  Level Chicago Center
Mon 07:37:42 PM 41.2633 -94.1431 259° West 418 774 32.000  Level Chicago Center
Mon 07:38:44 PM 41.2428 -94.2939 260° West 417 772 32.000  Level Chicago Center
Mon 07:39:46 PM 41.2192 -94.4447 258° West 420 777 32.000 -328 Level Chicago Center
Mon 07:40:52 PM 41.1950 -94.6178 260° West 425 787 31.300 -1.323 Descending Minneapolis Center
Mon 07:41:53 PM 41.1719 -94.7739 259° West 428 793 29.200 -2.341 Descending Minneapolis Center
Mon 07:42:55 PM 41.1414 -94.9672 258° West 440 814 26.500 -2.419 Descending Minneapolis Center
Mon 07:43:57 PM 41.1167 -95.1250 258° West 439 813 24.200 -2.293 Descending Minneapolis Center
Mon 07:44:58 PM 41.0919 -95.2753 258° West 424 785 21.800 -2.308 Descending Minneapolis Center
Mon 07:45:54 PM 41.0775 -95.4053 262° West 381 705 19.700 -2.204 Descending Minneapolis Center
Mon 07:46:36 PM 41.0631 -95.4956 258° West 355 658 18.200 -2.294 Descending Minneapolis Center
Mon 07:47:02 PM 41.0500 -95.5431 250° West 379 702 17.100 -2.361 Descending Minneapolis Center
Mon 07:47:37 PM 41.0403 -95.6228 261° West 353 653 15.800 -1.562 Descending Minneapolis Center
Mon 07:48:15 PM 41.0306 -95.6711 255° West 361 668 15.200 -1.600 Descending Minneapolis Center
Mon 07:48:37 PM 41.0197 -95.7497 260° West 352 652 14.200 -1.541 Descending Minneapolis Center
Mon 07:49:29 PM 41.0058 -95.8225 256° West 350 649 13.300 -1.421 Descending Minneapolis Center
Mon 07:50:31 PM 40.9839 -95.9575 258° West 314 581 11.500 -1.355 Descending Minneapolis Center
Mon 07:51:33 PM 40.9714 -96.0636 261° West 295 546 10.500 -1.179 Descending Minneapolis Center
Mon 07:52:28 PM 40.9656 -96.1644 266° West 243 451 9.200 -1.190 Descending Minneapolis Center
Mon 07:53:29 PM 40.9608 -96.2561 266° West 254 470 8.200 -969 Descending Minneapolis Center
Mon 07:54:38 PM 40.9603 -96.3678 270° West 258 478 7.100 -962 Descending Minneapolis Center
Mon 07:55:40 PM 40.9572 -96.4692 268° West 266 492 6.100 -823 Descending Minneapolis Center
Mon 07:56:42 PM 40.9522 -96.5711 266° West 272 504 5.400 -712 Descending Minneapolis Center
Mon 07:57:38 PM 40.9358 -96.6642 257° West 264 489 4.700 -1.220 Descending Minneapolis Center
Mon 07:58:45 PM 40.9281 -96.7478 263° West 176 327 2.900 -1.289 Descending Minneapolis Center
Mon 07:59:39 PM 40.8911 -96.7572 191° South 131 243 2.100 -529 Descending Minneapolis Center
Mon 08:01:01 PM 40.8633 -96.7606 185° South 158 293 1.700 -293 Descending Minneapolis Center

Login

Don't have an account? Register now (free) for customized features, flight alerts, and more!